Time;durP1;ratioP1;P1;durP2;ratioP2;P2;SDS_P1;SDS_P2;PMS_P1;PMS_P2;Temp;Humidity;BMP_temperature;BMP_pressure;BME280_temperature;BME280_humidity;BME280_pressure;Samples;Min_cycle;Max_cycle;Signal;HPM_P1;HPM_P2
2023/03/30 00:01:54;;;;;;;;;22.50;21.25;;;;;8.64;31.41;99996.88;5068777;28;9616;-79
2023/03/30 00:04:25;;;;;;;;;32.00;27.50;;;;;8.72;31.06;100001.22;5069115;28;8959;-74
2023/03/30 00:06:56;;;;;;;;;35.25;31.25;;;;;8.70;31.13;99988.13;5062587;28;8870;-75
2023/03/30 00:09:31;;;;;;;;;25.25;24.50;;;;;8.80;31.22;99992.44;5069052;28;8862;-75
2023/03/30 00:12:02;;;;;;;;;29.00;27.00;;;;;8.88;30.82;99996.78;5068112;28;8865;-77
2023/03/30 00:14:31;;;;;;;;;32.75;28.00;;;;;8.90;30.92;99982.75;5068447;28;8846;-78
2023/03/30 00:17:00;;;;;;;;;25.50;21.00;;;;;8.96;30.78;99980.09;5034249;28;8866;-75
2023/03/30 00:19:29;;;;;;;;;31.00;27.25;;;;;8.96;30.96;99972.22;5070295;28;9688;-76
2023/03/30 00:21:59;;;;;;;;;27.20;26.20;;;;;8.98;31.08;99978.31;5070487;28;8862;-77
2023/03/30 00:24:28;;;;;;;;;34.00;30.50;;;;;8.96;31.05;99976.59;5070171;28;8953;-76
2023/03/30 00:26:57;;;;;;;;;15.00;13.00;;;;;8.96;31.03;99964.34;5051356;28;8870;-77
2023/03/30 00:29:26;;;;;;;;;31.50;29.25;;;;;8.98;31.11;99967.84;5052648;28;8860;-75
2023/03/30 00:31:55;;;;;;;;;31.25;25.75;;;;;9.01;31.02;99959.94;5038180;28;8844;-77
2023/03/30 00:34:24;;;;;;;;;39.00;31.75;;;;;8.92;30.93;99972.28;5090463;28;8848;-77
2023/03/30 00:36:53;;;;;;;;;32.40;28.20;;;;;8.87;30.76;99972.28;5094836;28;8992;-75
2023/03/30 00:39:25;;;;;;;;;27.00;23.80;;;;;8.82;30.80;99971.47;5078374;28;8862;-76
2023/03/30 00:41:54;;;;;;;;;29.20;25.40;;;;;8.80;31.03;99971.47;5042977;28;8853;-76
2023/03/30 00:45:12;;;;;;;;;27.50;25.25;;;;;8.98;30.77;99962.59;5084568;28;8853;-76
2023/03/30 00:47:46;;;;;;;;;19.00;18.20;;;;;8.89;31.46;99967.91;5026791;28;8888;-74
2023/03/30 00:50:16;;;;;;;;;22.25;22.25;;;;;8.86;30.80;99962.69;5010279;28;8917;-75
2023/03/30 00:52:46;;;;;;;;;25.20;23.40;;;;;8.91;30.76;99960.88;5043600;28;8918;-76
2023/03/30 00:55:16;;;;;;;;;30.00;26.00;;;;;8.84;30.71;99959.22;5026148;28;8852;-76
2023/03/30 00:57:45;;;;;;;;;28.60;23.40;;;;;8.85;30.67;99960.94;4993762;28;8934;-76
2023/03/30 01:00:15;;;;;;;;;24.60;23.20;;;;;8.88;30.70;99952.22;4985435;28;8852;-78
2023/03/30 01:02:50;;;;;;;;;26.00;25.20;;;;;8.82;30.53;99950.50;4939228;28;8841;-77
2023/03/30 01:05:20;;;;;;;;;26.25;23.00;;;;;8.83;30.67;99949.59;4970496;28;8867;-76
2023/03/30 01:07:49;;;;;;;;;25.00;22.80;;;;;8.85;30.94;99942.59;4986742;28;8860;-75
2023/03/30 01:10:21;;;;;;;;;28.40;24.80;;;;;8.81;30.54;99946.13;4986884;28;8872;-75
2023/03/30 01:12:50;;;;;;;;;29.60;28.20;;;;;8.69;30.34;99943.59;5003524;28;9610;-76
2023/03/30 01:15:20;;;;;;;;;22.25;17.50;;;;;8.57;30.96;99948.03;4986984;28;8966;-77
2023/03/30 01:18:10;;;;;;;;;18.60;18.00;;;;;8.75;30.57;99951.41;5002968;28;8982;-76
2023/03/30 01:21:15;;;;;;;;;25.00;22.50;;;;;8.81;30.73;99946.13;4983921;28;8862;-74
2023/03/30 01:24:15;;;;;;;;;19.25;18.75;;;;;8.82;30.55;99950.50;4986449;28;8848;-77
2023/03/30 01:26:56;;;;;;;;;27.60;25.40;;;;;8.89;30.49;99941.69;4986458;28;8880;-76
2023/03/30 01:29:41;;;;;;;;;25.20;21.80;;;;;8.96;30.84;99935.50;4954354;28;8922;-74
2023/03/30 01:32:34;;;;;;;;;30.00;26.67;;;;;8.98;30.76;99936.38;4996747;28;8868;-76
2023/03/30 01:35:47;;;;;;;;;25.40;20.60;;;;;9.07;30.31;99932.81;4957374;28;8867;-75
2023/03/30 01:38:46;;;;;;;;;22.60;22.20;;;;;9.07;30.64;99934.56;5021332;28;8830;-75
2023/03/30 01:41:24;;;;;;;;;24.00;22.80;;;;;8.98;30.89;99935.50;5042270;28;8846;-75
2023/03/30 01:44:01;;;;;;;;;21.80;21.00;;;;;8.99;31.12;99932.88;4995648;28;8921;-75
2023/03/30 01:46:34;;;;;;;;;27.50;21.75;;;;;8.91;31.24;99932.03;4984879;28;9686;-75
2023/03/30 01:49:14;;;;;;;;;22.80;21.00;;;;;8.90;31.22;99926.84;5051438;28;8899;-75
2023/03/30 01:51:48;;;;;;;;;22.60;21.60;;;;;8.89;30.92;99920.72;4938053;28;8896;-75
2023/03/30 01:54:23;;;;;;;;;24.00;21.00;;;;;8.81;30.98;99923.38;5014844;28;8880;-76
2023/03/30 01:56:59;;;;;;;;;23.60;18.00;;;;;8.81;30.91;99925.16;5027677;28;8890;-76
2023/03/30 01:59:33;;;;;;;;;22.60;20.40;;;;;8.71;30.48;99926.13;5009998;28;8933;-75
2023/03/30 02:02:06;;;;;;;;;21.60;20.00;;;;;8.69;31.15;99920.88;5078274;28;8850;-76
2023/03/30 02:04:40;;;;;;;;;20.40;19.20;;;;;8.71;30.84;99921.72;5068380;28;8866;-77
2023/03/30 02:07:14;;;;;;;;;21.00;15.60;;;;;8.59;31.00;99924.44;5101656;28;9596;-75
2023/03/30 02:09:48;;;;;;;;;18.80;17.20;;;;;8.65;30.85;99922.66;5087058;28;8847;-76
2023/03/30 02:12:19;;;;;;;;;25.00;24.25;;;;;8.59;31.00;99930.56;5035660;28;8863;-76
2023/03/30 02:14:49;;;;;;;;;21.40;20.40;;;;;8.56;31.18;99927.09;5050071;28;8859;-76
2023/03/30 02:17:23;;;;;;;;;18.60;16.80;;;;;8.60;31.11;99934.91;5048636;28;8865;-77
2023/03/30 02:19:55;;;;;;;;;20.80;19.20;;;;;8.62;31.08;99933.13;5017103;28;8854;-75
2023/03/30 02:22:28;;;;;;;;;26.00;21.00;;;;;8.18;31.23;99931.63;5069160;28;8980;-76
2023/03/30 02:24:57;;;;;;;;;25.25;22.75;;;;;8.25;31.73;99922.88;5111371;28;8899;-76
2023/03/30 02:27:27;;;;;;;;;31.60;27.20;;;;;8.35;32.02;99915.00;5088296;28;8867;-76
2023/03/30 02:29:56;;;;;;;;;36.50;30.50;;;;;8.38;31.56;99912.34;5069488;28;8836;-76
2023/03/30 02:32:28;;;;;;;;;25.75;24.50;;;;;8.46;31.80;99913.19;5068915;28;8970;-77
2023/03/30 02:35:21;;;;;;;;;22.60;21.60;;;;;8.59;31.37;99908.69;5050717;28;8866;-76
2023/03/30 02:38:12;;;;;;;;;29.75;26.25;;;;;8.61;31.83;99917.41;5035859;28;8836;-77
2023/03/30 02:40:53;;;;;;;;;35.00;27.00;;;;;8.61;31.88;99917.41;5051129;28;8844;-78
2023/03/30 02:43:47;;;;;;;;;25.00;23.00;;;;;8.63;31.49;99916.56;5051941;28;8860;-75
2023/03/30 02:46:30;;;;;;;;;20.20;17.00;;;;;8.37;31.60;99918.47;5052354;28;8832;-76
2023/03/30 02:49:11;;;;;;;;;18.00;18.00;;;;;8.52;31.40;99914.88;5068432;28;8897;-76
2023/03/30 02:51:48;;;;;;;;;24.50;20.75;;;;;8.54;31.96;99914.00;5034010;28;8941;-77
2023/03/30 02:54:50;;;;;;;;;26.00;24.00;;;;;8.55;31.60;99915.72;4991810;28;8941;-76
2023/03/30 02:57:35;;;;;;;;;25.40;22.40;;;;;8.58;31.10;99922.69;5007716;28;8924;-77
2023/03/30 03:00:30;;;;;;;;;23.50;23.00;;;;;8.52;31.26;99910.50;5007278;28;8862;-77
2023/03/30 03:03:07;;;;;;;;;27.25;22.25;;;;;8.45;31.06;99906.19;4992360;28;8854;-77
2023/03/30 03:05:37;;;;;;;;;21.50;20.75;;;;;8.30;31.21;99904.53;4992312;28;8948;-75
2023/03/30 03:08:15;;;;;;;;;19.20;17.80;;;;;8.30;31.21;99908.88;4946770;28;8862;-77
2023/03/30 03:10:46;;;;;;;;;25.20;21.20;;;;;8.29;31.43;99905.38;4975714;28;8893;-76
2023/03/30 03:13:19;;;;;;;;;22.50;21.00;;;;;8.26;31.16;99898.41;5007666;28;10227;-75
2023/03/30 03:15:54;;;;;;;;;20.50;18.25;;;;;8.15;31.32;99894.09;5005738;28;9764;-75
2023/03/30 03:18:25;;;;;;;;;24.40;23.80;;;;;8.17;31.49;99900.22;5031135;28;9604;-76
2023/03/30 03:20:54;;;;;;;;;22.20;21.80;;;;;8.10;32.03;99893.25;5048256;28;8896;-75
2023/03/30 03:23:24;;;;;;;;;21.40;20.80;;;;;8.10;31.39;99890.63;5031726;28;8854;-76
2023/03/30 03:25:56;;;;;;;;;26.50;26.00;;;;;7.96;31.69;99890.72;4999441;28;9066;-77
2023/03/30 03:28:25;;;;;;;;;28.25;27.00;;;;;7.95;31.76;99891.56;4998361;28;8864;-75
2023/03/30 03:31:01;;;;;;;;;27.25;24.25;;;;;7.83;32.78;99901.22;5038120;28;8865;-75
2023/03/30 03:33:31;;;;;;;;;33.50;28.75;;;;;7.84;32.86;99889.91;5071564;28;8872;-75
2023/03/30 03:36:10;;;;;;;;;30.00;26.75;;;;;7.72;32.76;99883.84;5054221;28;8852;-77
2023/03/30 03:38:46;;;;;;;;;29.50;26.00;;;;;7.63;32.36;99887.38;5071001;28;8857;-75
2023/03/30 03:41:16;;;;;;;;;28.25;24.25;;;;;7.67;32.63;99895.19;5067501;28;8937;-75
2023/03/30 03:43:46;;;;;;;;;28.60;28.20;;;;;7.69;32.58;99892.56;5051499;28;8916;-77
2023/03/30 03:46:18;;;;;;;;;25.75;25.50;;;;;7.55;33.51;99891.72;5051193;28;8848;-75
2023/03/30 03:48:47;;;;;;;;;22.00;20.00;;;;;7.69;33.25;99889.97;5048410;28;8832;-77
2023/03/30 03:51:16;;;;;;;;;26.00;25.75;;;;;7.63;33.63;99888.22;5050678;28;9667;-77
2023/03/30 03:53:45;;;;;;;;;29.75;27.50;;;;;7.63;33.27;99883.00;5042724;28;8833;-75
2023/03/30 03:56:14;;;;;;;;;29.00;29.00;;;;;7.54;33.93;99888.25;5021546;28;9551;-76
2023/03/30 03:58:43;;;;;;;;;44.50;40.50;;;;;7.56;33.80;99878.66;5053809;28;8966;-75
2023/03/30 04:01:13;;;;;;;;;30.50;27.75;;;;;7.58;34.04;99891.75;5070196;28;8865;-76
2023/03/30 04:03:43;;;;;;;;;26.25;25.75;;;;;7.46;33.66;99888.28;5053091;28;8838;-76
2023/03/30 04:06:12;;;;;;;;;25.00;24.25;;;;;7.44;34.40;99890.03;5079110;28;8840;-77
2023/03/30 04:08:41;;;;;;;;;27.25;27.25;;;;;7.39;34.16;99883.06;5108588;28;8848;-77
2023/03/30 04:11:34;;;;;;;;;28.50;28.50;;;;;7.39;34.53;99893.53;5031787;28;8941;-76
2023/03/30 04:14:35;;;;;;;;;49.00;43.25;;;;;7.34;33.81;99887.44;4968967;28;8844;-77
2023/03/30 04:17:32;;;;;;;;;36.50;34.00;;;;;7.33;34.99;99890.94;4967001;28;8945;-76
2023/03/30 04:20:29;;;;;;;;;33.75;29.75;;;;;7.27;34.41;99891.81;4968246;28;8856;-80
2023/03/30 04:23:21;;;;;;;;;27.25;25.50;;;;;7.15;34.57;99887.47;4967973;28;8880;-77
2023/03/30 04:26:22;;;;;;;;;35.50;32.00;;;;;7.09;34.61;99890.94;4932971;28;8905;-77
2023/03/30 04:29:00;;;;;;;;;24.75;23.75;;;;;6.97;34.72;99890.97;4933486;28;8889;-77
2023/03/30 04:31:55;;;;;;;;;33.00;28.75;;;;;7.01;35.01;99892.72;4933107;28;8968;-76
2023/03/30 04:34:36;;;;;;;;;31.00;29.75;;;;;6.99;35.39;99888.38;4948370;28;8867;-77
2023/03/30 04:37:30;;;;;;;;;27.50;23.00;;;;;6.97;34.91;99887.50;4932452;28;8847;-76
2023/03/30 04:40:19;;;;;;;;;26.25;26.25;;;;;6.92;35.00;99882.25;4946979;28;8874;-75
2023/03/30 04:43:14;;;;;;;;;33.33;31.33;;;;;6.87;35.51;99884.88;4909860;29;8874;-77
2023/03/30 04:45:56;;;;;;;;;30.25;29.00;;;;;6.84;35.38;99878.75;4894754;29;8877;-76
2023/03/30 04:48:43;;;;;;;;;43.50;40.25;;;;;6.70;35.92;99886.56;4913247;29;8890;-76
2023/03/30 04:51:31;;;;;;;;;39.50;37.75;;;;;6.69;35.46;99877.00;5013432;28;8873;-77
2023/03/30 04:54:34;;;;;;;;;30.00;23.50;;;;;6.67;35.75;99877.00;4967560;28;8952;-75
2023/03/30 04:57:21;;;;;;;;;26.60;25.60;;;;;6.69;35.33;99880.50;4948733;28;8982;-76
2023/03/30 05:00:13;;;;;;;;;23.20;22.20;;;;;6.64;35.93;99882.22;4948099;28;8875;-78
2023/03/30 05:03:02;;;;;;;;;23.25;21.75;;;;;6.54;35.77;99883.09;4935575;28;8868;-75
2023/03/30 05:05:49;;;;;;;;;28.25;25.25;;;;;6.61;36.30;99886.59;4960221;28;8855;-77
2023/03/30 05:08:34;;;;;;;;;32.75;24.50;;;;;6.73;36.12;99881.38;4939713;28;8864;-75
2023/03/30 05:11:05;;;;;;;;;25.60;23.40;;;;;6.84;35.66;99881.38;4945091;28;8833;-76
2023/03/30 05:13:50;;;;;;;;;29.50;28.50;;;;;6.80;36.61;99877.88;4949069;28;8847;-77
2023/03/30 05:16:43;;;;;;;;;26.00;23.00;;;;;6.81;36.63;99873.53;4935900;28;8860;-75
2023/03/30 05:19:50;;;;;;;;;26.50;25.25;;;;;6.82;35.96;99881.38;4923085;29;8910;-77
2023/03/30 05:22:30;;;;;;;;;32.60;27.20;;;;;6.93;35.69;99881.41;4928561;29;8955;-78
2023/03/30 05:25:10;;;;;;;;;25.00;24.80;;;;;6.96;35.89;99888.38;4913803;29;8900;-77
2023/03/30 05:28:02;;;;;;;;;24.50;23.25;;;;;6.98;35.83;99886.63;4919417;28;8858;-70
2023/03/30 05:30:54;;;;;;;;;29.50;25.75;;;;;7.21;35.80;99887.47;4927576;29;8973;-73
2023/03/30 05:33:55;;;;;;;;;28.20;26.60;;;;;7.48;34.96;99886.53;4947009;28;8900;-75
2023/03/30 05:36:36;;;;;;;;;25.40;24.40;;;;;7.56;34.91;99885.66;4931187;28;8955;-75
2023/03/30 05:39:17;;;;;;;;;25.80;24.60;;;;;7.77;34.78;99880.31;4934000;28;8872;-70
2023/03/30 05:42:04;;;;;;;;;28.50;25.75;;;;;7.95;34.70;99868.03;4966130;28;8874;-71
2023/03/30 05:44:43;;;;;;;;;27.00;19.40;;;;;8.16;33.95;99869.69;4956323;28;8958;-71
2023/03/30 05:47:18;;;;;;;;;22.25;22.25;;;;;8.29;34.06;99870.44;4934479;28;9001;-71
2023/03/30 05:50:22;;;;;;;;;22.80;21.40;;;;;8.38;33.71;99876.56;4889742;29;9691;-71
2023/03/30 05:52:58;;;;;;;;;21.00;19.00;;;;;8.59;33.57;99875.53;4889850;29;8919;-69
2023/03/30 05:55:38;;;;;;;;;23.20;23.20;;;;;8.80;33.28;99884.09;4876331;29;8881;-70
2023/03/30 05:58:10;;;;;;;;;22.00;21.20;;;;;8.94;32.85;99876.13;4902796;29;8874;-72
2023/03/30 06:00:53;;;;;;;;;35.25;32.75;;;;;9.13;32.77;99872.44;4892890;29;8933;-70
2023/03/30 06:03:32;;;;;;;;;46.25;41.00;;;;;9.26;32.89;99867.94;4880765;29;8886;-71
2023/03/30 06:06:01;;;;;;;;;35.75;34.00;;;;;9.38;32.48;99867.78;4909124;29;9025;-70
2023/03/30 06:08:31;;;;;;;;;24.60;23.20;;;;;9.47;32.25;99863.34;4908967;29;8842;-70
2023/03/30 06:11:05;;;;;;;;;11.40;11.20;;;;;9.65;31.99;99868.41;4968417;28;8867;-76
2023/03/30 06:13:53;;;;;;;;;23.80;21.80;;;;;9.79;31.65;99850.72;4974845;28;8886;-76
2023/03/30 06:16:24;;;;;;;;;21.20;20.80;;;;;9.97;31.59;99865.38;4963546;28;8856;-75
2023/03/30 06:18:53;;;;;;;;;21.40;21.40;;;;;10.12;31.55;99863.41;4940411;28;8912;-77
2023/03/30 06:21:23;;;;;;;;;19.40;17.80;;;;;10.23;31.14;99865.91;4923676;28;8863;-77
2023/03/30 06:24:02;;;;;;;;;24.60;20.60;;;;;10.39;31.29;99863.03;4965097;28;8894;-74
2023/03/30 06:26:33;;;;;;;;;20.80;20.40;;;;;10.55;31.03;99861.00;5053770;28;8862;-76
2023/03/30 06:29:03;;;;;;;;;22.40;22.00;;;;;10.72;31.14;99867.78;5042758;28;8840;-76
2023/03/30 06:31:33;;;;;;;;;24.80;23.80;;;;;10.87;30.78;99870.16;5109588;27;8840;-77
2023/03/30 06:34:25;;;;;;;;;24.60;22.60;;;;;11.04;30.00;99866.41;5069622;28;8870;-77
2023/03/30 06:36:54;;;;;;;;;32.00;27.80;;;;;11.18;29.97;99874.88;5051728;28;8846;-76
2023/03/30 06:39:26;;;;;;;;;27.00;25.40;;;;;11.32;30.05;99882.53;5084497;28;8850;-76
2023/03/30 06:41:55;;;;;;;;;20.20;19.00;;;;;11.38;29.97;99878.03;5070498;28;8937;-76
2023/03/30 06:44:55;;;;;;;;;20.80;20.20;;;;;11.54;29.84;99882.97;5066094;28;8866;-76
2023/03/30 06:47:26;;;;;;;;;25.80;23.60;;;;;11.68;29.56;99875.69;5073019;28;8998;-75
2023/03/30 06:49:56;;;;;;;;;30.40;29.60;;;;;11.48;30.27;99885.75;5055962;28;8854;-78
2023/03/30 06:52:34;;;;;;;;;23.40;22.00;;;;;11.80;29.95;99885.09;5068486;28;9009;-77
2023/03/30 06:55:05;;;;;;;;;25.40;23.20;;;;;11.94;29.77;99884.88;5050043;28;10246;-76
2023/03/30 06:57:33;;;;;;;;;25.00;24.20;;;;;12.13;30.11;99886.19;5035999;28;8874;-76
2023/03/30 07:00:09;;;;;;;;;28.60;27.60;;;;;12.35;29.51;99877.78;5083356;28;8854;-77
2023/03/30 07:02:58;;;;;;;;;27.20;25.80;;;;;12.64;29.12;99886.81;5068105;28;8874;-77
2023/03/30 07:05:34;;;;;;;;;27.80;27.00;;;;;12.80;28.61;99888.16;5050623;28;8965;-78
2023/03/30 07:08:26;;;;;;;;;30.00;26.50;;;;;12.30;28.10;99893.72;5039677;28;8954;-78
2023/03/30 07:10:57;;;;;;;;;28.40;25.20;;;;;12.62;27.86;99891.25;5029232;28;8865;-79
2023/03/30 07:13:30;;;;;;;;;18.60;17.80;;;;;12.57;27.89;99887.84;5061318;28;9859;-75
2023/03/30 07:16:01;;;;;;;;;21.40;20.40;;;;;12.80;28.51;99882.88;5049911;28;8842;-77
2023/03/30 07:18:33;;;;;;;;;24.60;20.20;;;;;12.83;28.65;99881.94;5060310;28;9698;-77
2023/03/30 07:21:03;;;;;;;;;31.20;26.40;;;;;12.89;27.79;99881.81;5040153;28;8968;-77
2023/03/30 07:23:42;;;;;;;;;18.60;18.00;;;;;12.36;27.34;99892.72;5050716;28;8856;-76
2023/03/30 07:26:17;;;;;;;;;17.60;17.60;;;;;12.69;27.09;99888.44;5048022;28;8904;-76
2023/03/30 07:28:53;;;;;;;;;12.40;12.40;;;;;12.82;27.23;99891.63;5055029;28;8954;-75
2023/03/30 07:31:24;;;;;;;;;23.40;20.60;;;;;12.91;27.56;99899.34;5051188;28;8852;-77
2023/03/30 07:33:54;;;;;;;;;27.00;24.20;;;;;13.05;27.14;99901.66;5068111;28;8863;-76
2023/03/30 07:36:26;;;;;;;;;25.00;23.60;;;;;13.20;27.84;99889.81;5050200;28;8935;-76
2023/03/30 07:38:57;;;;;;;;;19.40;18.00;;;;;13.32;27.67;99886.00;5048032;28;8952;-75
2023/03/30 07:41:26;;;;;;;;;10.80;9.80;;;;;13.43;27.61;99889.22;5032502;28;8871;-74
2023/03/30 07:43:58;;;;;;;;;19.60;19.20;;;;;13.62;27.36;99886.03;5052070;28;10251;-77
2023/03/30 07:46:27;;;;;;;;;23.80;22.60;;;;;13.83;27.15;99884.63;5059156;28;9597;-76
2023/03/30 07:48:58;;;;;;;;;22.80;22.20;;;;;13.89;27.26;99885.28;5103474;28;10051;-75
2023/03/30 07:51:28;;;;;;;;;20.40;20.00;;;;;14.05;27.13;99891.00;5052853;28;8874;-77
2023/03/30 07:54:04;;;;;;;;;17.40;16.20;;;;;14.25;26.58;99884.25;5069318;28;8885;-75
2023/03/30 07:56:51;;;;;;;;;21.60;19.20;;;;;14.43;26.32;99874.84;5083316;28;8844;-76
2023/03/30 07:59:22;;;;;;;;;19.80;17.40;;;;;14.42;25.63;99871.34;5095026;28;8886;-75
2023/03/30 08:01:53;;;;;;;;;13.40;13.40;;;;;13.31;25.50;99876.31;5021074;28;8836;-76
2023/03/30 08:04:40;;;;;;;;;18.60;17.20;;;;;13.28;25.46;99876.44;5103077;28;8866;-78
2023/03/30 08:07:10;;;;;;;;;14.80;14.20;;;;;13.43;25.59;99883.03;5102784;28;8842;-76
2023/03/30 08:09:39;;;;;;;;;21.20;20.60;;;;;13.64;25.58;99885.09;5085989;28;8858;-75
2023/03/30 08:12:08;;;;;;;;;17.20;14.80;;;;;13.82;25.65;99880.22;5082684;28;8868;-74
2023/03/30 08:14:37;;;;;;;;;12.60;11.60;;;;;14.26;25.61;99873.63;5091581;28;9010;-77
2023/03/30 08:17:06;;;;;;;;;14.80;14.00;;;;;14.56;25.21;99872.69;5076746;28;8931;-76
2023/03/30 08:19:35;;;;;;;;;12.20;11.80;;;;;14.04;24.39;99876.03;5051658;28;8846;-75
2023/03/30 08:22:05;;;;;;;;;14.60;11.60;;;;;14.12;25.28;99873.16;5070375;28;8878;-78
2023/03/30 08:24:34;;;;;;;;;10.80;10.00;;;;;14.50;24.78;99870.25;5070338;28;8862;-76
2023/03/30 08:27:03;;;;;;;;;11.80;8.60;;;;;14.36;24.47;99870.69;5070149;28;9632;-76
2023/03/30 08:29:32;;;;;;;;;16.60;14.20;;;;;13.36;25.60;99871.78;5102740;28;8851;-76
2023/03/30 08:32:01;;;;;;;;;8.60;8.00;;;;;13.98;25.55;99865.66;5070274;28;8843;-77
2023/03/30 08:34:31;;;;;;;;;13.40;12.60;;;;;14.37;25.10;99864.47;5068776;28;8866;-77
2023/03/30 08:37:02;;;;;;;;;13.20;11.60;;;;;14.20;24.93;99857.06;5069017;28;8861;-75
2023/03/30 08:39:32;;;;;;;;;7.40;7.40;;;;;14.68;24.56;99851.13;5069869;28;8858;-75
2023/03/30 08:42:16;;;;;;;;;20.00;17.80;;;;;14.85;24.34;99856.75;5069575;28;8834;-76
2023/03/30 08:44:55;;;;;;;;;13.00;11.60;;;;;14.81;24.56;99854.25;5069065;28;8846;-77
2023/03/30 08:47:32;;;;;;;;;8.60;8.60;;;;;15.13;24.26;99847.88;5070034;28;8850;-76
2023/03/30 08:50:08;;;;;;;;;11.00;9.40;;;;;15.29;23.97;99840.25;5069420;28;8928;-75
2023/03/30 08:52:38;;;;;;;;;12.60;11.80;;;;;14.11;24.80;99850.31;5068489;28;8854;-77
2023/03/30 08:55:21;;;;;;;;;8.40;6.20;;;;;13.77;25.37;99843.34;5102307;28;9734;-75
2023/03/30 08:57:56;;;;;;;;;7.00;7.00;;;;;13.30;25.63;99857.00;5035228;28;8814;-76
2023/03/30 09:00:33;;;;;;;;;11.20;10.00;;;;;13.24;25.82;99854.53;5084223;28;8853;-77
2023/03/30 09:03:14;;;;;;;;;5.80;5.80;;;;;13.37;25.62;99860.31;5068433;28;8858;-76
2023/03/30 09:05:48;;;;;;;;;7.40;6.60;;;;;13.83;25.61;99839.69;5068545;28;8854;-77
2023/03/30 09:08:21;;;;;;;;;6.40;6.00;;;;;14.30;24.89;99840.00;5085469;28;8904;-76
2023/03/30 09:10:58;;;;;;;;;5.20;5.00;;;;;13.10;25.63;99840.81;5070149;28;8838;-77
2023/03/30 09:13:32;;;;;;;;;6.40;6.00;;;;;13.89;25.37;99843.00;5051072;28;8858;-76
2023/03/30 09:16:13;;;;;;;;;7.00;6.60;;;;;14.22;25.57;99828.78;5068905;28;8858;-77
2023/03/30 09:18:46;;;;;;;;;9.80;8.20;;;;;14.25;24.62;99834.00;5070321;28;8820;-77
2023/03/30 09:21:15;;;;;;;;;10.20;10.20;;;;;14.25;24.94;99832.22;5088162;28;8916;-77
2023/03/30 09:23:45;;;;;;;;;7.60;7.60;;;;;14.41;25.48;99835.25;5089358;28;9008;-76
2023/03/30 09:26:23;;;;;;;;;9.20;8.00;;;;;14.91;24.84;99820.41;5067844;28;8854;-76
2023/03/30 09:29:02;;;;;;;;;11.20;9.40;;;;;14.32;24.74;99824.06;5091694;28;9403;-77
2023/03/30 09:31:40;;;;;;;;;4.60;4.00;;;;;12.43;26.56;99832.78;5068964;28;8867;-75
2023/03/30 09:34:25;;;;;;;;;5.00;5.00;;;;;12.43;27.42;99831.03;5068908;28;8939;-79
2023/03/30 09:37:00;;;;;;;;;7.20;6.00;;;;;12.65;26.99;99825.22;5068422;28;8847;-78
2023/03/30 09:39:30;;;;;;;;;5.40;5.00;;;;;12.59;26.28;99826.25;5073229;28;8847;-77
2023/03/30 09:42:18;;;;;;;;;7.60;6.80;;;;;12.47;27.42;99832.69;5078089;28;8872;-74
2023/03/30 09:44:50;;;;;;;;;7.40;7.40;;;;;13.28;27.02;99827.13;5067602;28;8847;-71
2023/03/30 09:47:26;;;;;;;;;7.20;6.00;;;;;13.69;25.97;99826.84;5068689;28;8862;-76
2023/03/30 09:49:57;;;;;;;;;7.60;6.20;;;;;13.18;26.15;99824.78;5051104;28;8847;-76
2023/03/30 09:52:28;;;;;;;;;6.00;4.40;;;;;13.52;25.95;99824.69;5045938;28;8846;-76
2023/03/30 09:55:02;;;;;;;;;6.40;5.40;;;;;13.65;26.00;99812.84;5062656;28;8866;-82
2023/03/30 09:57:33;;;;;;;;;6.40;6.40;;;;;13.12;26.58;99815.25;5055891;28;8840;-73
2023/03/30 10:00:23;;;;;;;;;7.00;5.40;;;;;12.47;27.85;99816.88;5033029;28;8886;-77
2023/03/30 10:02:56;;;;;;;;;9.20;7.80;;;;;12.42;28.36;99823.16;5048661;28;8848;-74
2023/03/30 10:05:27;;;;;;;;;9.00;9.00;;;;;12.32;28.43;99814.63;5045032;28;8858;-76
2023/03/30 10:07:59;;;;;;;;;4.00;2.80;;;;;12.24;28.41;99801.63;5062482;28;8870;-78
2023/03/30 10:10:34;;;;;;;;;12.80;12.40;;;;;12.45;28.81;99804.66;5029473;28;8854;-76
2023/03/30 10:13:08;;;;;;;;;6.60;6.00;;;;;12.63;28.83;99800.66;5029089;28;8835;-76
2023/03/30 10:15:40;;;;;;;;;9.80;8.20;;;;;13.23;27.99;99799.97;5037301;28;8871;-77
2023/03/30 10:18:24;;;;;;;;;10.00;7.00;;;;;13.96;27.33;99779.38;5065298;28;9604;-76
2023/03/30 10:20:54;;;;;;;;;8.00;6.60;;;;;14.09;27.23;99784.25;5061845;28;8842;-76
2023/03/30 10:23:32;;;;;;;;;6.00;6.00;;;;;14.35;26.75;99773.75;5044935;28;8854;-75
2023/03/30 10:26:02;;;;;;;;;12.40;11.40;;;;;14.89;26.27;99758.72;5028945;28;8866;-78
2023/03/30 10:28:34;;;;;;;;;7.20;5.80;;;;;14.93;25.99;99760.34;5032685;28;8988;-79
2023/03/30 10:31:08;;;;;;;;;8.00;8.00;;;;;14.92;25.87;99751.50;5067783;28;8965;-78
2023/03/30 10:33:41;;;;;;;;;10.20;8.00;;;;;15.67;25.57;99747.91;5072760;28;8858;-77
2023/03/30 10:36:11;;;;;;;;;8.80;7.40;;;;;16.17;25.49;99749.44;5072410;28;8862;-78
2023/03/30 10:38:42;;;;;;;;;9.40;8.80;;;;;15.93;24.94;99759.28;5059325;28;8838;-76
2023/03/30 10:41:20;;;;;;;;;8.20;8.20;;;;;15.58;25.41;99764.13;5112771;28;8848;-77
2023/03/30 10:43:51;;;;;;;;;7.00;6.60;;;;;14.68;26.36;99755.88;5054133;28;8965;-76
2023/03/30 10:46:24;;;;;;;;;6.60;6.60;;;;;14.94;26.96;99740.88;5085934;28;8877;-77
2023/03/30 10:49:06;;;;;;;;;8.80;8.00;;;;;14.53;26.80;99741.41;5084785;28;9621;-79
2023/03/30 10:51:47;;;;;;;;;6.20;6.00;;;;;14.06;27.58;99730.63;5047257;28;8863;-77
2023/03/30 10:54:26;;;;;;;;;8.00;8.00;;;;;14.51;27.70;99737.06;5087421;28;8890;-81
2023/03/30 10:57:00;;;;;;;;;10.00;9.60;;;;;15.29;27.64;99721.06;5071720;28;8851;-71
2023/03/30 11:00:00;;;;;;;;;8.60;8.00;;;;;15.41;27.31;99719.72;5090847;28;8852;-70
2023/03/30 11:02:44;;;;;;;;;2.60;2.60;;;;;15.86;26.86;99718.03;5074955;28;8889;-80
2023/03/30 11:05:20;;;;;;;;;9.60;8.00;;;;;14.79;27.71;99713.19;5075935;28;8866;-79
2023/03/30 11:07:55;;;;;;;;;7.00;6.60;;;;;15.17;27.26;99711.78;5070549;28;8953;-79
2023/03/30 11:10:30;;;;;;;;;9.00;8.20;;;;;15.69;27.09;99711.59;5088318;28;8886;-77
2023/03/30 11:13:02;;;;;;;;;8.20;7.20;;;;;14.72;28.31;99709.00;5026008;28;8859;-78
2023/03/30 11:15:38;;;;;;;;;5.20;4.80;;;;;15.52;27.49;99708.72;5048358;28;9617;-77
2023/03/30 11:18:13;;;;;;;;;6.40;5.80;;;;;15.84;27.28;99710.13;5072547;28;8863;-79
2023/03/30 11:20:47;;;;;;;;;8.40;7.00;;;;;16.35;26.51;99700.94;5054090;28;8860;-79
2023/03/30 11:23:23;;;;;;;;;7.60;7.40;;;;;16.12;26.34;99704.56;5060512;28;8859;-77
2023/03/30 11:26:04;;;;;;;;;9.20;9.20;;;;;15.24;27.50;99725.66;5069549;28;8919;-78
2023/03/30 11:28:54;;;;;;;;;7.00;7.00;;;;;14.32;28.31;99724.47;5020787;28;8957;-77
2023/03/30 11:31:53;;;;;;;;;10.80;10.80;;;;;13.60;29.78;99724.97;5056306;28;8906;-81
2023/03/30 11:34:31;;;;;;;;;9.80;8.40;;;;;13.47;30.27;99723.63;4968843;28;8896;-78
2023/03/30 11:37:11;;;;;;;;;13.40;12.40;;;;;13.62;29.91;99714.34;4971397;28;9618;-78
2023/03/30 11:39:49;;;;;;;;;14.00;11.00;;;;;13.76;29.53;99708.66;4971878;28;8875;-80
2023/03/30 11:42:24;;;;;;;;;11.20;10.80;;;;;14.51;28.91;99700.03;4990060;28;9025;-78
2023/03/30 11:44:53;;;;;;;;;7.00;7.00;;;;;15.14;28.11;99690.72;4968738;28;8862;-79
2023/03/30 11:47:40;;;;;;;;;7.40;6.60;;;;;15.45;27.12;99693.06;4976866;28;8866;-78
2023/03/30 11:50:28;;;;;;;;;8.60;8.00;;;;;15.92;26.98;99680.66;4954715;28;8884;-78
2023/03/30 11:53:13;;;;;;;;;9.60;8.60;;;;;16.47;26.66;99667.72;4877214;29;8882;-78
2023/03/30 11:55:51;;;;;;;;;6.40;6.40;;;;;16.94;25.88;99664.75;4845047;29;9661;-79
2023/03/30 11:58:27;;;;;;;;;8.00;6.80;;;;;17.31;25.44;99656.94;4844847;29;8874;-77
2023/03/30 12:01:10;;;;;;;;;8.20;7.00;;;;;17.74;25.03;99652.19;4829998;29;8900;-78
2023/03/30 12:03:43;;;;;;;;;8.00;8.00;;;;;17.32;24.56;99648.88;4851691;29;8898;-78
2023/03/30 12:06:27;;;;;;;;;8.40;7.80;;;;;17.06;25.45;99655.41;4863819;29;8885;-78
2023/03/30 12:09:06;;;;;;;;;7.40;7.40;;;;;17.16;24.67;99643.41;4862575;29;8881;-78
2023/03/30 12:11:40;;;;;;;;;16.80;15.40;;;;;15.89;26.42;99652.50;4926707;28;8867;-77
2023/03/30 12:14:40;;;;;;;;;8.00;8.00;;;;;15.86;26.48;99649.97;4998881;28;8982;-78
2023/03/30 12:17:24;;;;;;;;;7.60;6.00;;;;;16.59;25.94;99642.47;4915687;29;8890;-77
2023/03/30 12:20:00;;;;;;;;;9.40;8.40;;;;;16.96;26.17;99625.72;4916166;29;8969;-81
2023/03/30 12:22:38;;;;;;;;;9.20;9.20;;;;;16.33;26.04;99628.53;4900331;29;9025;-78